Scottsdale, AZ (85250)

10:51 AM MST on March 28, 2017 (GMT -0700)
Old Town Scottsdale-North | | Change Station
Active Advisory: Fire Weather Warning

Elev 1273 ft 33.52 °N, 111.91 °W | Updated 4 seconds ago

Clear
Clear
70.2 °F
Feels Like 75 °F
N
2.7
Wind Variable Wind from NE
Gusts 4.9 mph

Today
High -- | Low -- °F
--% Chance of Precip.
Yesterday
High -- | Low -- °F
Precip. -- in
Pressure 29.84 in
Visibility 10.0 miles
Clouds Clear
Heat Index 75 °F
Dew Point 32 °F
Humidity 24%
Rainfall 0.00 in
Snow Depth Not available.
6:20 AM 6:45 PM
New Moon, 1% visible
METAR KSDL 281653Z 00000KT 10SM CLR 18/01 A2988 RMK AO2 SLP104 T01780011
Pressure 29.84 in
Visibility 10.0 miles
Clouds Clear
Heat Index 75 °F
Dew Point 32 °F
Humidity 24%
Rainfall 0.00 in
Snow Depth Not available.
6:20 AM 6:45 PM
New Moon, 1% visible
METAR KSDL 281653Z 00000KT 10SM CLR 18/01 A2988 RMK AO2 SLP104 T01780011

Get Your Daily Forecast Email!

Thanks for signing up!

Be on the lookout for a verification email in your inbox.

You'll start receiving severe weather alerts in your inbox..

×

10-Day Weather Forecast

Almanac

Astronomy

Mar. 28, 2017 Rise Set
Actual Time
Civil Twilight
Nautical Twilight
Astronomical Twilight
Moon
Length of Visible Light
Length of Day
Tomorrow will be .
, % of the Moon is Illuminated

Today's Extremes

State Highs State Lows

Community

WunderPhotos

Upload Photos

1,962,540 photos uploaded!

WunderBlog® & News

Nearby

Air Quality

  Air Quality AQ Index Pollutant
Not available.

Snow Depth

Station Depth Elevation

Earthquake Activity

City Distance Mag. Time & Date
Minimum magnitude displayed is 2.5.

Earthquake Activity

City Distance Mag. Time & Date
Minimum magnitude displayed is 2.5.

Coastal Water Temperatures

Place Temperature

Stations

Nearby Weather Stations

Station Location Temp. Windchill Dew Point Humidity Wind Precip. Elev Updated Type
                   

Watches & Warnings

Fire Weather Warning
Issued: 3:28 AM PDT Mar. 28, 2017 – National Weather Service

... Red flag warning remains in effect from noon MST /noon PDT/
today to 7 PM MST /7 PM PDT/ this evening for strong winds, low
relative humidity and high fire danger for the lower Colorado
River valley and southwestern deserts of Arizona...

* affected area... Arizona fire weather zone 131 Yuma/Martinez
Lake and vicinity/lower Colorado River valley AZ, Arizona fire
weather zone 132 south-central and southwest deserts and
California fire weather zone 231 lower Colorado River valley
CA.

* Winds... northwest 15 to 25 mph with gusts up to 35 mph.

* Timing... this afternoon into early this evening.

* Relative humidity... as low as 10 percent.

* Impacts... fine fuels will quickly dry out this afternoon across
southwestern Arizona. These conditions combined with low
relative humidity and gusty winds will lead to a high fire danger
for a few hours.

Precautionary/preparedness actions...

Please advise the appropriate officials and fire crews in the
field of this red flag warning.